Time,TemperatureF,DewpointF,PressureIn,WindDirection,WindDirectionDegrees,WindSpeedMPH,WindSpeedGustMPH,Humidity,HourlyPrecipIn,Conditions,Clouds,dailyrainin,SolarRadiationWatts/m^2,SoftwareType,DateUTC
2013-08-01 00:01:00,61.2,58.2,30.05,WNW,282,0.0,1.0,90,0.00,,,0.00,0.0,WUHU216DAVISVP2,2013-08-01 04:01:00,
2013-08-01 00:02:00,61.3,58.0,30.05,WNW,282,0.0,1.0,89,0.00,,,0.00,0.0,WUHU216DAVISVP2,2013-08-01 04:02:00,
2013-08-01 00:07:00,61.2,57.9,30.05,WNW,282,0.0,1.0,89,0.00,,,0.00,0.0,WUHU216DAVISVP2,2013-08-01 04:07:00,
2013-08-01 00:12:00,61.0,58.0,30.05,WNW,282,0.0,1.0,90,0.00,,,0.00,0.0,WUHU216DAVISVP2,2013-08-01 04:12:00,
2013-08-01 00:17:00,60.8,57.8,30.05,WNW,282,1.0,1.0,90,0.00,,,0.00,0.0,WUHU216DAVISVP2,2013-08-01 04:17:00,
2013-08-01 00:22:00,60.6,57.6,30.05,WNW,282,0.0,1.0,90,0.00,,,0.00,0.0,WUHU216DAVISVP2,2013-08-01 04:22:00,
2013-08-01 00:27:00,60.5,57.5,30.05,WNW,282,0.0,1.0,90,0.00,,,0.00,0.0,WUHU216DAVISVP2,2013-08-01 04:27:00,
2013-08-01 00:32:00,60.2,57.5,30.05,WNW,282,0.0,1.0,91,0.00,,,0.00,0.0,WUHU216DAVISVP2,2013-08-01 04:32:00,
2013-08-01 00:37:00,60.0,57.0,30.05,WNW,282,0.0,1.0,90,0.00,,,0.00,0.0,WUHU216DAVISVP2,2013-08-01 04:37:00,
2013-08-01 00:42:00,59.8,57.1,30.05,WNW,282,0.0,0.0,91,0.00,,,0.00,0.0,WUHU216DAVISVP2,2013-08-01 04:42:00,
2013-08-01 00:47:00,59.8,57.2,30.05,WNW,282,0.0,1.0,91,0.00,,,0.00,0.0,WUHU216DAVISVP2,2013-08-01 04:47:00,
2013-08-01 00:52:00,59.8,57.2,30.05,WNW,282,0.0,1.0,91,0.00,,,0.00,0.0,WUHU216DAVISVP2,2013-08-01 04:52:00,
2013-08-01 00:58:00,59.9,57.2,30.05,WNW,282,0.0,1.0,91,0.00,,,0.00,0.0,WUHU216DAVISVP2,2013-08-01 04:58:00,
2013-08-01 01:03:00,60.0,57.3,30.05,WNW,282,0.0,1.0,91,0.00,,,0.00,0.0,WUHU216DAVISVP2,2013-08-01 05:03:00,
2013-08-01 01:08:00,60.0,57.6,30.05,WNW,282,0.0,1.0,92,0.00,,,0.00,0.0,WUHU216DAVISVP2,2013-08-01 05:08:00,
2013-08-01 01:13:00,59.9,57.2,30.04,WNW,282,0.0,0.0,91,0.00,,,0.00,0.0,WUHU216DAVISVP2,2013-08-01 05:13:00,
2013-08-01 01:18:00,59.9,57.2,30.04,WNW,282,0.0,0.0,91,0.00,,,0.00,0.0,WUHU216DAVISVP2,2013-08-01 05:18:00,
2013-08-01 01:23:00,59.8,57.1,30.04,WNW,282,0.0,0.0,91,0.00,,,0.00,0.0,WUHU216DAVISVP2,2013-08-01 05:23:00,
2013-08-01 01:28:00,59.8,57.1,30.05,WNW,282,0.0,0.0,91,0.00,,,0.00,0.0,WUHU216DAVISVP2,2013-08-01 05:28:00,
2013-08-01 01:33:00,59.8,57.1,30.04,WNW,282,0.0,0.0,91,0.00,,,0.00,0.0,WUHU216DAVISVP2,2013-08-01 05:33:00,
2013-08-01 01:38:00,59.8,57.1,30.05,WNW,282,0.0,0.0,91,0.00,,,0.00,0.0,WUHU216DAVISVP2,2013-08-01 05:38:00,
2013-08-01 01:43:00,59.7,57.0,30.04,WNW,282,1.0,1.0,91,0.00,,,0.00,0.0,WUHU216DAVISVP2,2013-08-01 05:43:00,
2013-08-01 01:48:00,59.5,56.9,30.04,WNW,282,0.0,2.0,91,0.00,,,0.00,0.0,WUHU216DAVISVP2,2013-08-01 05:48:00,
2013-08-01 01:53:00,59.2,56.9,30.04,WNW,282,0.0,2.0,92,0.00,,,0.00,0.0,WUHU216DAVISVP2,2013-08-01 05:53:00,
2013-08-01 01:58:00,59.0,56.4,30.04,WNW,282,0.0,2.0,91,0.00,,,0.00,0.0,WUHU216DAVISVP2,2013-08-01 05:58:00,
2013-08-01 02:03:00,59.0,56.6,30.04,WNW,282,0.0,1.0,92,0.00,,,0.00,0.0,WUHU216DAVISVP2,2013-08-01 06:03:00,
2013-08-01 02:08:00,59.1,56.7,30.04,WNW,282,0.0,1.0,92,0.00,,,0.00,0.0,WUHU216DAVISVP2,2013-08-01 06:08:00,
2013-08-01 02:13:00,59.1,56.7,30.04,WNW,282,0.0,1.0,92,0.00,,,0.00,0.0,WUHU216DAVISVP2,2013-08-01 06:13:00,
2013-08-01 02:18:00,59.2,56.8,30.04,WNW,282,0.0,1.0,92,0.00,,,0.00,0.0,WUHU216DAVISVP2,2013-08-01 06:18:00,
2013-08-01 02:23:00,59.2,56.8,30.04,WNW,282,0.0,1.0,92,0.00,,,0.00,0.0,WUHU216DAVISVP2,2013-08-01 06:23:00,
2013-08-01 02:28:00,59.1,56.7,30.03,WNW,282,0.0,1.0,92,0.00,,,0.00,0.0,WUHU216DAVISVP2,2013-08-01 06:28:00,
2013-08-01 02:33:00,59.0,56.6,30.03,WNW,282,0.0,0.0,92,0.00,,,0.00,0.0,WUHU216DAVISVP2,2013-08-01 06:33:00,
2013-08-01 02:38:00,58.8,56.4,30.03,WNW,282,0.0,0.0,92,0.00,,,0.00,0.0,WUHU216DAVISVP2,2013-08-01 06:38:00,
2013-08-01 02:43:00,58.7,56.3,30.03,WNW,282,0.0,0.0,92,0.00,,,0.00,0.0,WUHU216DAVISVP2,2013-08-01 06:43:00,
2013-08-01 02:48:00,58.4,55.8,30.03,WNW,282,0.0,0.0,91,0.00,,,0.00,0.0,WUHU216DAVISVP2,2013-08-01 06:48:00,
2013-08-01 02:53:00,58.2,55.9,30.03,WNW,282,0.0,0.0,92,0.00,,,0.00,0.0,WUHU216DAVISVP2,2013-08-01 06:53:00,
2013-08-01 02:58:00,58.1,55.8,30.03,WNW,282,0.0,0.0,92,0.00,,,0.00,0.0,WUHU216DAVISVP2,2013-08-01 06:58:00,
2013-08-01 03:03:00,58.1,55.8,30.03,WNW,282,0.0,0.0,92,0.00,,,0.00,0.0,WUHU216DAVISVP2,2013-08-01 07:03:00,
2013-08-01 03:08:00,58.1,55.8,30.03,WNW,282,0.0,0.0,92,0.00,,,0.00,0.0,WUHU216DAVISVP2,2013-08-01 07:08:00,
2013-08-01 03:13:00,58.2,55.8,30.03,WNW,282,0.0,1.0,92,0.00,,,0.00,0.0,WUHU216DAVISVP2,2013-08-01 07:13:00,
2013-08-01 03:18:00,58.3,55.9,30.02,WNW,282,0.0,1.0,92,0.00,,,0.00,0.0,WUHU216DAVISVP2,2013-08-01 07:18:00,
2013-08-01 03:23:00,58.4,56.0,30.02,WNW,282,0.0,1.0,92,0.00,,,0.00,0.0,WUHU216DAVISVP2,2013-08-01 07:23:00,
2013-08-01 03:28:00,58.2,55.8,30.02,WNW,282,0.0,1.0,92,0.00,,,0.00,0.0,WUHU216DAVISVP2,2013-08-01 07:28:00,
2013-08-01 03:33:00,57.9,55.6,30.02,WNW,282,0.0,1.0,92,0.00,,,0.00,0.0,WUHU216DAVISVP2,2013-08-01 07:33:00,
2013-08-01 03:38:00,57.8,55.5,30.02,WNW,282,0.0,1.0,92,0.00,,,0.00,0.0,WUHU216DAVISVP2,2013-08-01 07:38:00,
2013-08-01 03:43:00,57.6,55.3,30.01,WNW,282,0.0,0.0,92,0.00,,,0.00,0.0,WUHU216DAVISVP2,2013-08-01 07:43:00,
2013-08-01 03:48:00,57.4,55.1,30.01,WNW,282,0.0,0.0,92,0.00,,,0.00,0.0,WUHU216DAVISVP2,2013-08-01 07:48:00,
2013-08-01 03:53:00,57.3,55.3,30.01,WNW,282,0.0,0.0,93,0.00,,,0.00,0.0,WUHU216DAVISVP2,2013-08-01 07:53:00,
2013-08-01 03:58:00,57.4,55.1,30.01,WNW,282,0.0,0.0,92,0.00,,,0.00,0.0,WUHU216DAVISVP2,2013-08-01 07:58:00,
2013-08-01 04:03:00,57.6,55.6,30.01,WNW,282,0.0,0.0,93,0.00,,,0.00,0.0,WUHU216DAVISVP2,2013-08-01 08:03:00,
2013-08-01 04:08:00,57.8,55.7,30.01,WNW,282,0.0,0.0,93,0.00,,,0.00,0.0,WUHU216DAVISVP2,2013-08-01 08:08:00,
2013-08-01 04:13:00,57.9,55.8,30.01,WNW,282,0.0,0.0,93,0.00,,,0.00,0.0,WUHU216DAVISVP2,2013-08-01 08:13:00,
2013-08-01 04:18:00,58.0,55.9,30.01,WNW,282,1.0,1.0,93,0.00,,,0.00,0.0,WUHU216DAVISVP2,2013-08-01 08:18:00,
2013-08-01 04:23:00,58.2,56.1,30.01,WNW,282,0.0,1.0,93,0.00,,,0.00,0.0,WUHU216DAVISVP2,2013-08-01 08:23:00,
2013-08-01 04:29:00,58.4,56.3,30.01,WNW,282,0.0,1.0,93,0.00,,,0.00,0.0,WUHU216DAVISVP2,2013-08-01 08:29:00,
2013-08-01 04:34:00,58.3,55.9,30.01,WNW,282,0.0,1.0,92,0.00,,,0.00,0.0,WUHU216DAVISVP2,2013-08-01 08:34:00,
2013-08-01 04:39:00,58.2,55.9,30.00,WNW,282,0.0,1.0,92,0.00,,,0.00,0.0,WUHU216DAVISVP2,2013-08-01 08:39:00,
2013-08-01 04:44:00,58.3,56.0,30.00,WNW,282,0.0,1.0,92,0.00,,,0.00,0.0,WUHU216DAVISVP2,2013-08-01 08:44:00,
2013-08-01 04:50:00,58.4,56.0,30.00,WNW,282,0.0,1.0,92,0.00,,,0.00,0.0,WUHU216DAVISVP2,2013-08-01 08:50:00,
2013-08-01 04:56:00,58.4,56.3,30.00,WNW,282,0.0,1.0,93,0.00,,,0.00,0.0,WUHU216DAVISVP2,2013-08-01 08:56:00,
2013-08-01 05:01:00,58.6,56.5,30.01,WNW,282,0.0,1.0,93,0.00,,,0.00,0.0,WUHU216DAVISVP2,2013-08-01 09:01:00,
2013-08-01 05:06:00,58.8,56.7,30.01,WNW,282,0.0,1.0,93,0.00,,,0.00,0.0,WUHU216DAVISVP2,2013-08-01 09:06:00,
2013-08-01 05:12:00,59.0,56.9,30.01,WNW,282,0.0,1.0,93,0.00,,,0.00,0.0,WUHU216DAVISVP2,2013-08-01 09:12:00,
2013-08-01 05:17:00,59.2,57.4,30.01,WNW,282,0.0,1.0,94,0.00,,,0.00,0.0,WUHU216DAVISVP2,2013-08-01 09:17:00,
2013-08-01 05:22:00,58.8,57.0,30.01,WNW,282,0.0,2.0,94,0.00,,,0.00,0.0,WUHU216DAVISVP2,2013-08-01 09:22:00,
2013-08-01 05:28:00,58.6,56.5,30.01,WNW,282,1.0,2.0,93,0.00,,,0.00,0.0,WUHU216DAVISVP2,2013-08-01 09:28:00,
2013-08-01 05:33:00,58.5,56.7,30.01,WNW,282,0.0,2.0,94,0.00,,,0.00,0.0,WUHU216DAVISVP2,2013-08-01 09:33:00,
2013-08-01 05:38:00,58.7,56.9,30.01,WNW,282,0.0,2.0,94,0.00,,,0.00,0.0,WUHU216DAVISVP2,2013-08-01 09:38:00,
2013-08-01 05:43:00,58.7,56.9,30.01,WNW,282,0.0,1.0,94,0.00,,,0.00,0.0,WUHU216DAVISVP2,2013-08-01 09:43:00,
2013-08-01 05:48:00,58.7,56.9,30.01,WNW,282,0.0,1.0,94,0.00,,,0.00,5.0,WUHU216DAVISVP2,2013-08-01 09:48:00,
2013-08-01 05:54:00,58.8,57.0,30.01,WNW,282,0.0,1.0,94,0.00,,,0.00,5.0,WUHU216DAVISVP2,2013-08-01 09:54:00,
2013-08-01 05:59:00,58.9,57.1,30.01,WNW,282,0.0,2.0,94,0.00,,,0.00,7.0,WUHU216DAVISVP2,2013-08-01 09:59:00,
2013-08-01 06:04:00,58.9,57.2,30.01,WNW,282,0.0,2.0,94,0.00,,,0.00,11.0,WUHU216DAVISVP2,2013-08-01 10:04:00,
2013-08-01 06:10:00,59.0,57.3,30.01,WNW,282,0.0,2.0,94,0.00,,,0.00,12.0,WUHU216DAVISVP2,2013-08-01 10:10:00,
2013-08-01 06:15:00,59.1,57.4,30.01,WNW,282,0.0,2.0,94,0.00,,,0.00,12.0,WUHU216DAVISVP2,2013-08-01 10:15:00,
2013-08-01 06:20:00,59.0,57.3,30.01,WNW,282,0.0,2.0,94,0.00,,,0.00,18.0,WUHU216DAVISVP2,2013-08-01 10:20:00,
2013-08-01 06:26:00,58.9,57.1,30.01,WNW,282,0.0,2.0,94,0.00,,,0.00,19.0,WUHU216DAVISVP2,2013-08-01 10:26:00,
2013-08-01 06:32:00,59.0,57.2,30.01,WNW,282,1.0,2.0,94,0.00,,,0.00,23.0,WUHU216DAVISVP2,2013-08-01 10:32:00,
2013-08-01 06:37:00,59.0,57.2,30.01,WNW,282,1.0,2.0,94,0.00,,,0.00,25.0,WUHU216DAVISVP2,2013-08-01 10:37:00,
2013-08-01 06:42:00,59.1,57.3,30.01,WNW,282,1.0,1.0,94,0.00,,,0.00,30.0,WUHU216DAVISVP2,2013-08-01 10:42:00,
2013-08-01 06:47:00,58.9,57.1,30.01,WNW,282,0.0,2.0,94,0.00,,,0.00,32.0,WUHU216DAVISVP2,2013-08-01 10:47:00,
2013-08-01 06:53:00,59.1,57.3,30.01,WNW,282,0.0,2.0,94,0.00,,,0.00,40.0,WUHU216DAVISVP2,2013-08-01 10:53:00,
2013-08-01 06:58:00,59.2,57.4,30.01,WNW,282,1.0,2.0,94,0.00,,,0.00,44.0,WUHU216DAVISVP2,2013-08-01 10:58:00,
2013-08-01 07:03:00,59.2,57.4,30.01,WNW,282,1.0,2.0,94,0.00,,,0.00,49.0,WUHU216DAVISVP2,2013-08-01 11:03:00,
2013-08-01 07:08:00,59.2,57.5,30.01,WNW,282,0.0,2.0,94,0.00, FG,,0.00,25.0,WUHU216DAVISVP2,2013-08-01 11:08:00,
2013-08-01 07:13:00,59.3,57.5,30.01,WNW,283,1.0,2.0,94,0.00, FG,,0.00,40.0,WUHU216DAVISVP2,2013-08-01 11:13:00,
2013-08-01 07:19:00,59.5,57.7,30.02,WNW,282,1.0,2.0,94,0.00, FG,,0.00,69.0,WUHU216DAVISVP2,2013-08-01 11:19:00,
2013-08-01 07:24:00,59.9,58.5,30.02,WNW,283,1.0,2.0,95,0.00, FG,,0.00,83.0,WUHU216DAVISVP2,2013-08-01 11:24:00,
2013-08-01 07:29:00,60.1,58.3,30.02,WNW,283,1.0,2.0,94,0.00, FG,,0.00,49.0,WUHU216DAVISVP2,2013-08-01 11:29:00,
2013-08-01 07:34:00,60.1,58.6,30.02,WNW,282,1.0,2.0,95,0.00, FG,,0.00,65.0,WUHU216DAVISVP2,2013-08-01 11:34:00,
2013-08-01 07:40:00,60.1,58.3,30.02,WNW,282,0.0,2.0,94,0.00, FG,,0.00,53.0,WUHU216DAVISVP2,2013-08-01 11:40:00,
2013-08-01 07:46:00,60.2,58.4,30.02,WNW,282,0.0,2.0,94,0.00, FG,,0.00,65.0,WUHU216DAVISVP2,2013-08-01 11:46:00,
2013-08-01 07:51:00,60.8,59.1,30.02,WNW,282,0.0,2.0,94,0.00, FG,,0.00,118.0,WUHU216DAVISVP2,2013-08-01 11:51:00,
2013-08-01 07:57:00,61.3,59.9,30.02,WNW,282,0.0,2.0,95,0.00, FG,,0.00,121.0,WUHU216DAVISVP2,2013-08-01 11:57:00,
2013-08-01 08:02:00,61.2,59.5,30.01,WNW,282,0.0,2.0,94,0.00, FG,,0.00,130.0,WUHU216DAVISVP2,2013-08-01 12:02:00,
2013-08-01 08:07:00,61.1,59.3,30.01,WSW,243,0.0,2.0,94,0.00, FG,,0.00,139.0,WUHU216DAVISVP2,2013-08-01 12:07:00,
2013-08-01 08:12:00,61.5,59.7,30.01,WSW,243,0.0,2.0,94,0.00, FG,,0.00,160.0,WUHU216DAVISVP2,2013-08-01 12:12:00,
2013-08-01 08:18:00,61.6,59.5,30.01,WSW,242,1.0,2.0,93,0.00, FG,,0.00,163.0,WUHU216DAVISVP2,2013-08-01 12:18:00,
2013-08-01 08:23:00,62.4,60.3,30.01,WSW,242,1.0,2.0,93,0.00, FG,,0.00,158.0,WUHU216DAVISVP2,2013-08-01 12:23:00,
2013-08-01 08:28:00,62.5,60.1,30.01,WSW,244,3.0,3.0,92,0.00, FG,,0.00,158.0,WUHU216DAVISVP2,2013-08-01 12:28:00,
2013-08-01 08:33:00,62.5,59.8,30.01,WSW,238,2.0,3.0,91,0.00, FG,,0.00,111.0,WUHU216DAVISVP2,2013-08-01 12:33:00,
2013-08-01 08:38:00,62.7,60.0,30.00,WSW,240,1.0,3.0,91,0.00, FG,,0.00,83.0,WUHU216DAVISVP2,2013-08-01 12:38:00,
2013-08-01 08:43:00,63.7,60.7,30.00,WSW,240,0.0,3.0,90,0.00, FG,,0.00,76.0,WUHU216DAVISVP2,2013-08-01 12:43:00,
2013-08-01 08:49:00,64.4,61.1,30.00,WSW,239,1.0,2.0,89,0.00, FG,,0.00,483.0,WUHU216DAVISVP2,2013-08-01 12:49:00,
2013-08-01 08:54:00,65.8,61.5,30.00,SW,228,0.0,2.0,86,0.00, FG,,0.00,519.0,WUHU216DAVISVP2,2013-08-01 12:54:00,
2013-08-01 08:59:00,66.3,61.7,30.00,SW,231,1.0,3.0,85,0.00, FG,,0.00,533.0,WUHU216DAVISVP2,2013-08-01 12:59:00,
2013-08-01 09:04:00,67.4,62.1,29.99,SW,221,0.0,3.0,83,0.00, FG,,0.00,550.0,WUHU216DAVISVP2,2013-08-01 13:04:00,
2013-08-01 09:10:00,68.3,62.6,29.99,WSW,239,0.0,3.0,82,0.00, FG,,0.00,564.0,WUHU216DAVISVP2,2013-08-01 13:10:00,
2013-08-01 09:15:00,70.7,65.0,29.99,WSW,240,0.0,3.0,82,0.00, FG,,0.00,580.0,WUHU216DAVISVP2,2013-08-01 13:15:00,
2013-08-01 09:20:00,70.9,62.7,29.99,West,267,1.0,3.0,75,0.00, FG,,0.00,596.0,WUHU216DAVISVP2,2013-08-01 13:20:00,
2013-08-01 09:26:00,70.2,62.8,29.99,West,270,1.0,4.0,77,0.00, FG,,0.00,608.0,WUHU216DAVISVP2,2013-08-01 13:26:00,
2013-08-01 09:31:00,70.5,63.1,29.98,ENE,65,1.0,4.0,77,0.00, FG,,0.00,629.0,WUHU216DAVISVP2,2013-08-01 13:31:00,
2013-08-01 09:36:00,71.2,63.0,29.98,WSW,258,1.0,4.0,75,0.00, FG,,0.00,645.0,WUHU216DAVISVP2,2013-08-01 13:36:00,
2013-08-01 09:41:00,73.6,64.6,29.98,East,82,2.0,4.0,73,0.00, FG,,0.00,657.0,WUHU216DAVISVP2,2013-08-01 13:41:00,
2013-08-01 09:47:00,75.1,64.4,29.98,North,5,1.0,4.0,69,0.00, FG,,0.00,673.0,WUHU216DAVISVP2,2013-08-01 13:47:00,
2013-08-01 09:52:00,75.7,65.4,29.97,ENE,73,0.0,4.0,70,0.00, FG,,0.00,687.0,WUHU216DAVISVP2,2013-08-01 13:52:00,
2013-08-01 09:57:00,75.6,64.3,29.97,NNE,22,1.0,4.0,68,0.00, FG,,0.00,700.0,WUHU216DAVISVP2,2013-08-01 13:57:00,
2013-08-01 10:02:00,74.3,63.3,29.97,West,263,1.0,4.0,68,0.00, FG,,0.00,710.0,WUHU216DAVISVP2,2013-08-01 14:02:00,
2013-08-01 10:07:00,74.1,62.9,29.97,NE,38,1.0,5.0,68,0.00,,,0.00,728.0,WUHU216DAVISVP2,2013-08-01 14:07:00,
2013-08-01 10:13:00,75.0,63.9,29.97,West,278,0.0,5.0,68,0.00,,,0.00,740.0,WUHU216DAVISVP2,2013-08-01 14:13:00,
2013-08-01 10:19:00,74.7,60.6,29.97,WNW,302,1.0,5.0,61,0.00,,,0.00,742.0,WUHU216DAVISVP2,2013-08-01 14:19:00,
2013-08-01 10:25:00,75.1,61.2,29.96,NW,324,0.0,5.0,62,0.00,,,0.00,763.0,WUHU216DAVISVP2,2013-08-01 14:25:00,
2013-08-01 10:30:00,75.2,61.7,29.96,West,281,1.0,4.0,63,0.00,,,0.00,775.0,WUHU216DAVISVP2,2013-08-01 14:30:00,
2013-08-01 10:36:00,75.6,63.4,29.96,ESE,106,4.0,6.0,66,0.00,,,0.00,788.0,WUHU216DAVISVP2,2013-08-01 14:36:00,
2013-08-01 10:42:00,77.2,62.5,29.95,NW,304,2.0,6.0,60,0.00,,,0.00,805.0,WUHU216DAVISVP2,2013-08-01 14:42:00,
2013-08-01 10:47:00,76.5,60.8,29.95,WNW,283,1.0,6.0,58,0.00,,,0.00,817.0,WUHU216DAVISVP2,2013-08-01 14:47:00,
2013-08-01 10:52:00,77.6,60.8,29.95,WNW,288,0.0,6.0,56,0.00,,,0.00,823.0,WUHU216DAVISVP2,2013-08-01 14:52:00,
2013-08-01 10:57:00,78.9,63.1,29.95,ENE,67,3.0,6.0,58,0.00,,,0.00,833.0,WUHU216DAVISVP2,2013-08-01 14:57:00,
2013-08-01 11:03:00,78.6,63.3,29.95,NE,53,2.0,6.0,59,0.00,,,0.00,844.0,WUHU216DAVISVP2,2013-08-01 15:03:00,
2013-08-01 11:08:00,78.2,63.4,29.94,North,5,1.0,9.0,60,0.00,,,0.00,854.0,WUHU216DAVISVP2,2013-08-01 15:08:00,
2013-08-01 11:14:00,79.4,59.8,29.94,SSE,161,1.0,9.0,51,0.00,,,0.00,860.0,WUHU216DAVISVP2,2013-08-01 15:14:00,
2013-08-01 11:19:00,78.2,59.3,29.94,North,355,1.0,9.0,52,0.00,,,0.00,868.0,WUHU216DAVISVP2,2013-08-01 15:19:00,
2013-08-01 11:24:00,80.5,65.3,29.93,ENE,69,5.0,7.0,60,0.00,,,0.00,879.0,WUHU216DAVISVP2,2013-08-01 15:24:00,
2013-08-01 11:30:00,80.3,62.1,29.93,NNE,13,2.0,8.0,54,0.00,,,0.00,886.0,WUHU216DAVISVP2,2013-08-01 15:30:00,
2013-08-01 11:35:00,80.1,60.5,29.93,ENE,60,4.0,8.0,51,0.00,,,0.00,893.0,WUHU216DAVISVP2,2013-08-01 15:35:00,
2013-08-01 11:41:00,78.9,59.4,29.93,North,5,2.0,8.0,51,0.00,,,0.00,898.0,WUHU216DAVISVP2,2013-08-01 15:41:00,
2013-08-01 11:46:00,80.0,60.9,29.93,NW,316,3.0,8.0,52,0.00,,,0.00,914.0,WUHU216DAVISVP2,2013-08-01 15:46:00,
2013-08-01 11:51:00,80.4,60.7,29.93,NW,319,3.0,8.0,51,0.00,,,0.00,923.0,WUHU216DAVISVP2,2013-08-01 15:51:00,
2013-08-01 11:56:00,79.8,60.2,29.92,ENE,73,1.0,8.0,51,0.00,,,0.00,974.0,WUHU216DAVISVP2,2013-08-01 15:56:00,
2013-08-01 12:01:00,79.8,58.9,29.92,WSW,250,3.0,8.0,49,0.00,,,0.00,995.0,WUHU216DAVISVP2,2013-08-01 16:01:00,
2013-08-01 12:07:00,81.3,61.6,29.92,NNE,33,4.0,6.0,51,0.00,,,0.00,1027.0,WUHU216DAVISVP2,2013-08-01 16:07:00,
2013-08-01 12:12:00,80.9,58.2,29.92,WNW,292,3.0,6.0,46,0.00,,,0.00,1065.0,WUHU216DAVISVP2,2013-08-01 16:12:00,
2013-08-01 12:17:00,79.4,57.5,29.92,West,275,2.0,7.0,47,0.00,,,0.00,652.0,WUHU216DAVISVP2,2013-08-01 16:17:00,
2013-08-01 12:22:00,78.6,60.7,29.92,East,92,2.0,7.0,54,0.00,,,0.00,543.0,WUHU216DAVISVP2,2013-08-01 16:22:00,
2013-08-01 12:27:00,79.8,65.4,29.92,ENE,78,3.0,7.0,61,0.00,,,0.00,1093.0,WUHU216DAVISVP2,2013-08-01 16:27:00,
2013-08-01 12:33:00,79.8,59.0,29.92,SE,134,4.0,7.0,49,0.00,,,0.00,823.0,WUHU216DAVISVP2,2013-08-01 16:33:00,
2013-08-01 12:38:00,79.7,60.1,29.92,NNE,22,3.0,8.0,51,0.00,,,0.00,178.0,WUHU216DAVISVP2,2013-08-01 16:38:00,
2013-08-01 12:43:00,80.4,60.2,29.91,WNW,290,1.0,8.0,50,0.00,,,0.00,1090.0,WUHU216DAVISVP2,2013-08-01 16:43:00,
2013-08-01 12:49:00,80.8,61.0,29.92,WNW,284,2.0,8.0,51,0.00,,,0.00,422.0,WUHU216DAVISVP2,2013-08-01 16:49:00,
2013-08-01 12:54:00,80.4,61.2,29.91,WNW,303,4.0,8.0,52,0.00,,,0.00,1114.0,WUHU216DAVISVP2,2013-08-01 16:54:00,
2013-08-01 12:59:00,79.3,59.2,29.91,SW,217,0.0,4.0,50,0.00,,,0.00,253.0,WUHU216DAVISVP2,2013-08-01 16:59:00,
2013-08-01 13:04:00,79.0,60.0,29.91,ENE,62,2.0,5.0,52,0.00,,,0.00,221.0,WUHU216DAVISVP2,2013-08-01 17:04:00,
2013-08-01 13:09:00,78.7,60.3,29.91,East,92,1.0,5.0,53,0.00,,,0.00,350.0,WUHU216DAVISVP2,2013-08-01 17:09:00,
2013-08-01 13:14:00,78.3,59.9,29.90,WNW,293,0.0,6.0,53,0.00,,,0.00,255.0,WUHU216DAVISVP2,2013-08-01 17:14:00,
2013-08-01 13:19:00,78.9,59.4,29.90,North,360,3.0,6.0,51,0.00,,,0.00,749.0,WUHU216DAVISVP2,2013-08-01 17:19:00,
2013-08-01 13:25:00,81.8,65.8,29.90,NE,52,1.0,6.0,58,0.00,,,0.00,1069.0,WUHU216DAVISVP2,2013-08-01 17:25:00,
2013-08-01 13:30:00,80.9,60.0,29.90,NE,53,2.0,7.0,49,0.00,,,0.00,1069.0,WUHU216DAVISVP2,2013-08-01 17:30:00,
2013-08-01 13:35:00,79.7,57.7,29.89,ENE,60,2.0,7.0,47,0.00,,,0.00,483.0,WUHU216DAVISVP2,2013-08-01 17:35:00,
2013-08-01 13:40:00,79.7,60.1,29.90,WSW,257,1.0,7.0,51,0.00,,,0.00,371.0,WUHU216DAVISVP2,2013-08-01 17:40:00,
2013-08-01 13:45:00,82.2,64.1,29.89,North,350,1.0,7.0,54,0.00,,,0.00,1129.0,WUHU216DAVISVP2,2013-08-01 17:45:00,
2013-08-01 13:50:00,80.8,61.0,29.89,SE,131,2.0,7.0,51,0.00,,,0.00,311.0,WUHU216DAVISVP2,2013-08-01 17:50:00,
2013-08-01 13:55:00,81.3,60.9,29.89,ENE,57,3.0,8.0,50,0.00,,,0.00,659.0,WUHU216DAVISVP2,2013-08-01 17:55:00,
2013-08-01 14:01:00,82.0,58.6,29.89,NNW,344,5.0,8.0,45,0.00,,,0.00,1028.0,WUHU216DAVISVP2,2013-08-01 18:01:00,
2013-08-01 14:06:00,80.7,60.5,29.89,North,360,2.0,8.0,50,0.00,,,0.00,863.0,WUHU216DAVISVP2,2013-08-01 18:06:00,
2013-08-01 14:11:00,81.0,60.7,29.89,NNW,344,1.0,8.0,50,0.00,,,0.00,928.0,WUHU216DAVISVP2,2013-08-01 18:11:00,
2013-08-01 14:16:00,81.7,62.0,29.89,NE,36,4.0,8.0,51,0.00,,,0.00,984.0,WUHU216DAVISVP2,2013-08-01 18:16:00,
2013-08-01 14:22:00,80.5,63.0,29.89,East,86,5.0,8.0,55,0.00,,,0.00,891.0,WUHU216DAVISVP2,2013-08-01 18:22:00,
2013-08-01 14:27:00,79.9,63.0,29.89,ENE,76,2.0,8.0,56,0.00,,,0.00,244.0,WUHU216DAVISVP2,2013-08-01 18:27:00,
2013-08-01 14:32:00,78.9,60.5,29.89,WNW,300,1.0,8.0,53,0.00,,,0.00,218.0,WUHU216DAVISVP2,2013-08-01 18:32:00,
2013-08-01 14:37:00,78.0,60.2,29.89,ENE,58,1.0,8.0,54,0.00,,,0.00,220.0,WUHU216DAVISVP2,2013-08-01 18:37:00,
2013-08-01 14:42:00,78.5,61.7,29.89,East,84,2.0,6.0,56,0.00,,,0.00,299.0,WUHU216DAVISVP2,2013-08-01 18:42:00,
2013-08-01 14:47:00,78.5,60.6,29.89,NNW,346,3.0,6.0,54,0.00,,,0.00,315.0,WUHU216DAVISVP2,2013-08-01 18:47:00,
2013-08-01 14:53:00,77.9,59.9,29.88,NW,307,2.0,6.0,54,0.00,,,0.00,255.0,WUHU216DAVISVP2,2013-08-01 18:53:00,
2013-08-01 14:58:00,77.9,60.4,29.88,NE,52,2.0,8.0,55,0.00,,,0.00,241.0,WUHU216DAVISVP2,2013-08-01 18:58:00,
2013-08-01 15:03:00,78.3,61.8,29.88,East,83,8.0,8.0,57,0.00,,,0.00,229.0,WUHU216DAVISVP2,2013-08-01 19:03:00,
2013-08-01 15:08:00,77.8,61.0,29.88,WSW,252,0.0,8.0,56,0.00,,,0.00,128.0,WUHU216DAVISVP2,2013-08-01 19:08:00,
2013-08-01 15:13:00,77.3,61.1,29.88,ENE,72,2.0,8.0,57,0.00,,,0.00,98.0,WUHU216DAVISVP2,2013-08-01 19:13:00,
2013-08-01 15:18:00,76.7,62.0,29.88,ENE,71,2.0,8.0,60,0.00,,,0.00,109.0,WUHU216DAVISVP2,2013-08-01 19:18:00,
2013-08-01 15:23:00,76.6,61.4,29.88,NNE,30,1.0,7.0,59,0.00,,,0.00,130.0,WUHU216DAVISVP2,2013-08-01 19:23:00,
2013-08-01 15:29:00,76.6,62.8,29.88,WNW,294,1.0,6.0,62,0.00,,,0.00,188.0,WUHU216DAVISVP2,2013-08-01 19:29:00,
2013-08-01 15:34:00,76.7,61.5,29.88,WNW,295,1.0,6.0,59,0.00,,,0.00,178.0,WUHU216DAVISVP2,2013-08-01 19:34:00,
2013-08-01 15:39:00,76.9,62.2,29.88,West,259,1.0,6.0,60,0.00,,,0.00,193.0,WUHU216DAVISVP2,2013-08-01 19:39:00,
2013-08-01 15:44:00,76.8,61.1,29.88,WSW,245,3.0,6.0,58,0.00,,,0.00,199.0,WUHU216DAVISVP2,2013-08-01 19:44:00,
2013-08-01 15:49:00,76.8,63.5,29.87,WNW,283,1.0,4.0,63,0.00,,,0.00,88.0,WUHU216DAVISVP2,2013-08-01 19:49:00,
2013-08-01 15:55:00,76.4,62.2,29.88,North,360,1.0,4.0,61,0.00,,,0.00,49.0,WUHU216DAVISVP2,2013-08-01 19:55:00,
2013-08-01 16:00:00,75.9,62.2,29.88,WSW,242,2.0,4.0,62,0.00,,,0.00,32.0,WUHU216DAVISVP2,2013-08-01 20:00:00,
2013-08-01 16:06:00,75.5,61.8,29.88,NNW,342,1.0,4.0,62,0.00,,,0.00,25.0,WUHU216DAVISVP2,2013-08-01 20:06:00,
2013-08-01 16:11:00,75.1,62.3,29.89,NW,315,1.0,4.0,64,0.00,,,0.00,18.0,WUHU216DAVISVP2,2013-08-01 20:11:00,
2013-08-01 16:16:00,74.5,63.5,29.89,NW,324,0.0,4.0,68,0.00,,,0.00,18.0,WUHU216DAVISVP2,2013-08-01 20:16:00,
2013-08-01 16:22:00,73.5,63.7,29.89,WNW,292,1.0,4.0,71,0.00,,,0.00,26.0,WUHU216DAVISVP2,2013-08-01 20:22:00,
2013-08-01 16:27:00,73.0,62.4,29.89,NNE,13,2.0,5.0,69,0.00,,,0.00,16.0,WUHU216DAVISVP2,2013-08-01 20:27:00,
2013-08-01 16:32:00,72.6,63.6,29.90,SSW,211,0.0,5.0,73,0.00,,,0.00,7.0,WUHU216DAVISVP2,2013-08-01 20:32:00,
2013-08-01 16:38:00,71.0,64.3,29.90,NE,39,3.0,5.0,79,0.02,,,0.02,12.0,WUHU216DAVISVP2,2013-08-01 20:38:00,
2013-08-01 16:40:00,69.9,64.2,29.90,ENE,60,1.0,5.0,82,0.02,,,0.02,14.0,WUHU216DAVISVP2,2013-08-01 20:40:00,
2013-08-01 16:46:00,69.0,64.3,29.90,NE,54,2.0,4.0,85,0.03,,,0.03,19.0,WUHU216DAVISVP2,2013-08-01 20:46:00,
2013-08-01 16:51:00,68.5,64.5,29.90,NE,54,0.0,4.0,87,0.04,,,0.04,26.0,WUHU216DAVISVP2,2013-08-01 20:51:00,
2013-08-01 16:56:00,68.3,64.6,29.90,NE,54,0.0,3.0,88,0.04,,,0.04,32.0,WUHU216DAVISVP2,2013-08-01 20:56:00,
2013-08-01 17:01:00,68.3,64.6,29.90,NE,54,1.0,3.0,88,0.05,,,0.05,33.0,WUHU216DAVISVP2,2013-08-01 21:01:00,
2013-08-01 17:06:00,68.3,64.9,29.90,NE,54,0.0,2.0,89,0.05,,,0.05,26.0,WUHU216DAVISVP2,2013-08-01 21:06:00,
2013-08-01 17:11:00,68.3,64.9,29.90,NE,54,0.0,2.0,89,0.06,,,0.06,21.0,WUHU216DAVISVP2,2013-08-01 21:11:00,
2013-08-01 17:16:00,68.1,64.7,29.90,NE,54,1.0,1.0,89,0.07,,,0.07,18.0,WUHU216DAVISVP2,2013-08-01 21:16:00,
2013-08-01 17:22:00,68.0,65.0,29.90,NE,54,0.0,1.0,90,0.07,,,0.07,19.0,WUHU216DAVISVP2,2013-08-01 21:22:00,
2013-08-01 17:27:00,67.9,64.9,29.90,NE,54,1.0,2.0,90,0.08,,,0.08,21.0,WUHU216DAVISVP2,2013-08-01 21:27:00,
2013-08-01 17:32:00,67.6,64.6,29.90,NE,54,0.0,2.0,90,0.09,,,0.09,11.0,WUHU216DAVISVP2,2013-08-01 21:32:00,
2013-08-01 17:37:00,67.4,64.7,29.90,NE,54,0.0,2.0,91,0.08,,,0.10,11.0,WUHU216DAVISVP2,2013-08-01 21:37:00,
2013-08-01 17:42:00,67.4,64.7,29.90,NE,54,1.0,2.0,91,0.07,,,0.10,18.0,WUHU216DAVISVP2,2013-08-01 21:42:00,
2013-08-01 17:47:00,67.5,64.8,29.90,NE,53,2.0,2.0,91,0.06,,,0.10,16.0,WUHU216DAVISVP2,2013-08-01 21:47:00,
2013-08-01 17:52:00,67.5,64.8,29.89,NE,55,1.0,2.0,91,0.07,,,0.11,16.0,WUHU216DAVISVP2,2013-08-01 21:52:00,
2013-08-01 17:58:00,67.3,64.6,29.89,NE,55,1.0,2.0,91,0.07,,,0.11,16.0,WUHU216DAVISVP2,2013-08-01 21:58:00,
2013-08-01 18:03:00,67.2,64.5,29.89,NE,55,0.0,2.0,91,0.07,,,0.12,16.0,WUHU216DAVISVP2,2013-08-01 22:03:00,
2013-08-01 18:08:00,67.3,64.6,29.89,NE,56,0.0,2.0,91,0.06,,,0.12,12.0,WUHU216DAVISVP2,2013-08-01 22:08:00,
2013-08-01 18:13:00,67.4,64.7,29.89,ENE,62,1.0,2.0,91,0.05,,,0.12,14.0,WUHU216DAVISVP2,2013-08-01 22:13:00,
2013-08-01 18:19:00,67.4,64.7,29.89,ENE,62,1.0,2.0,91,0.05,,,0.12,7.0,WUHU216DAVISVP2,2013-08-01 22:19:00,
2013-08-01 18:24:00,67.4,64.7,29.89,ENE,67,0.0,3.0,91,0.04,,,0.12,5.0,WUHU216DAVISVP2,2013-08-01 22:24:00,
2013-08-01 18:29:00,67.4,64.7,29.89,NE,55,2.0,4.0,91,0.03,,,0.12,9.0,WUHU216DAVISVP2,2013-08-01 22:29:00,
2013-08-01 18:35:00,67.2,64.5,29.89,NE,55,0.0,4.0,91,0.03,,,0.12,7.0,WUHU216DAVISVP2,2013-08-01 22:35:00,
2013-08-01 18:40:00,67.2,64.8,29.89,NE,55,0.0,4.0,92,0.03,,,0.13,0.0,WUHU216DAVISVP2,2013-08-01 22:40:00,
2013-08-01 18:45:00,67.1,64.7,29.89,NE,55,1.0,3.0,92,0.03,,,0.13,0.0,WUHU216DAVISVP2,2013-08-01 22:45:00,
2013-08-01 18:50:00,67.1,64.7,29.89,NE,55,1.0,3.0,92,0.03,,,0.13,9.0,WUHU216DAVISVP2,2013-08-01 22:50:00,
2013-08-01 18:55:00,67.1,64.7,29.89,NE,56,2.0,3.0,92,0.02,,,0.13,11.0,WUHU216DAVISVP2,2013-08-01 22:55:00,
2013-08-01 19:00:00,67.1,64.7,29.89,ENE,57,0.0,3.0,92,0.02,,,0.13,12.0,WUHU216DAVISVP2,2013-08-01 23:00:00,
2013-08-01 19:05:00,67.1,64.7,29.89,NE,56,0.0,4.0,92,0.01,,,0.13,7.0,WUHU216DAVISVP2,2013-08-01 23:05:00,
2013-08-01 19:11:00,67.2,64.8,29.89,NE,56,1.0,4.0,92,0.01,,,0.13,7.0,WUHU216DAVISVP2,2013-08-01 23:11:00,
2013-08-01 19:16:00,67.1,64.7,29.89,ENE,76,1.0,4.0,92,0.01,,,0.13,5.0,WUHU216DAVISVP2,2013-08-01 23:16:00,
2013-08-01 19:21:00,67.2,64.8,29.89,ENE,72,1.0,4.0,92,0.01,,,0.13,0.0,WUHU216DAVISVP2,2013-08-01 23:21:00,
2013-08-01 19:26:00,67.2,64.8,29.88,NE,51,0.0,4.0,92,0.01,,,0.13,0.0,WUHU216DAVISVP2,2013-08-01 23:26:00,
2013-08-01 19:31:00,67.2,64.8,29.88,NE,51,1.0,4.0,92,0.01,,,0.13,0.0,WUHU216DAVISVP2,2013-08-01 23:31:00,
2013-08-01 19:36:00,67.2,64.5,29.88,NE,38,2.0,5.0,91,0.01,,,0.13,5.0,WUHU216DAVISVP2,2013-08-01 23:36:00,
2013-08-01 19:41:00,67.2,64.8,29.88,ENE,62,2.0,5.0,92,0.00,,,0.13,0.0,WUHU216DAVISVP2,2013-08-01 23:41:00,
2013-08-01 19:46:00,67.2,64.8,29.88,NE,45,0.0,5.0,92,0.00,,,0.13,0.0,WUHU216DAVISVP2,2013-08-01 23:46:00,
2013-08-01 19:51:00,67.2,64.8,29.88,ENE,72,1.0,5.0,92,0.00,,,0.13,0.0,WUHU216DAVISVP2,2013-08-01 23:51:00,
2013-08-01 19:56:00,67.1,64.7,29.88,ENE,78,1.0,5.0,92,0.00,,,0.13,0.0,WUHU216DAVISVP2,2013-08-01 23:56:00,
2013-08-01 20:02:00,67.1,64.4,29.88,NNE,28,1.0,5.0,91,0.00,,,0.13,0.0,WUHU216DAVISVP2,2013-08-02 00:02:00,
2013-08-01 20:07:00,67.0,64.3,29.88,ENE,64,0.0,5.0,91,0.00,,,0.13,0.0,WUHU216DAVISVP2,2013-08-02 00:07:00,
2013-08-01 20:12:00,66.8,64.4,29.88,ENE,64,0.0,5.0,92,0.00,,,0.13,0.0,WUHU216DAVISVP2,2013-08-02 00:12:00,
2013-08-01 20:17:00,66.9,64.2,29.88,North,355,1.0,4.0,91,0.00,,,0.13,0.0,WUHU216DAVISVP2,2013-08-02 00:17:00,
2013-08-01 20:22:00,67.0,63.9,29.89,NE,40,1.0,4.0,90,0.00,,,0.13,0.0,WUHU216DAVISVP2,2013-08-02 00:22:00,
2013-08-01 20:27:00,66.8,64.1,29.89,NNE,25,2.0,4.0,91,0.00,,,0.13,0.0,WUHU216DAVISVP2,2013-08-02 00:27:00,
2013-08-01 20:33:00,66.7,63.7,29.89,ENE,59,1.0,4.0,90,0.00,,,0.13,0.0,WUHU216DAVISVP2,2013-08-02 00:33:00,
2013-08-01 20:38:00,66.6,63.6,29.89,ENE,57,1.0,4.0,90,0.00,,,0.13,0.0,WUHU216DAVISVP2,2013-08-02 00:38:00,
2013-08-01 20:43:00,66.7,63.7,29.89,NNE,13,1.0,4.0,90,0.00,,,0.13,0.0,WUHU216DAVISVP2,2013-08-02 00:43:00,
2013-08-01 20:48:00,66.7,63.7,29.89,ENE,63,0.0,3.0,90,0.00,,,0.13,0.0,WUHU216DAVISVP2,2013-08-02 00:48:00,
2013-08-01 20:53:00,66.6,63.6,29.89,NE,45,1.0,3.0,90,0.00,,,0.13,0.0,WUHU216DAVISVP2,2013-08-02 00:53:00,
2013-08-01 20:58:00,66.6,63.9,29.89,East,86,0.0,4.0,91,0.00,,,0.13,0.0,WUHU216DAVISVP2,2013-08-02 00:58:00,
2013-08-01 21:04:00,66.5,63.8,29.89,ENE,76,0.0,4.0,91,0.00,,,0.13,0.0,WUHU216DAVISVP2,2013-08-02 01:04:00,
2013-08-01 21:09:00,66.4,63.7,29.89,East,100,1.0,4.0,91,0.00,,,0.13,0.0,WUHU216DAVISVP2,2013-08-02 01:09:00,
2013-08-01 21:14:00,66.4,63.7,29.88,NE,44,0.0,4.0,91,0.00,,,0.13,0.0,WUHU216DAVISVP2,2013-08-02 01:14:00,
2013-08-01 21:19:00,66.3,63.6,29.88,NNW,331,2.0,4.0,91,0.00,,,0.13,0.0,WUHU216DAVISVP2,2013-08-02 01:19:00,
2013-08-01 21:24:00,66.3,63.6,29.88,NE,46,1.0,6.0,91,0.00,,,0.13,0.0,WUHU216DAVISVP2,2013-08-02 01:24:00,
2013-08-01 21:29:00,66.2,63.5,29.88,ENE,74,2.0,6.0,91,0.00,,,0.13,0.0,WUHU216DAVISVP2,2013-08-02 01:29:00,
2013-08-01 21:34:00,66.2,63.5,29.88,ENE,74,2.0,6.0,91,0.00,,,0.13,0.0,WUHU216DAVISVP2,2013-08-02 01:34:00,
2013-08-01 21:39:00,66.1,63.4,29.88,ENE,61,3.0,3.0,91,0.00,,,0.13,0.0,WUHU216DAVISVP2,2013-08-02 01:39:00,
2013-08-01 21:44:00,66.1,63.1,29.88,NNE,12,1.0,4.0,90,0.00,,,0.13,0.0,WUHU216DAVISVP2,2013-08-02 01:44:00,
2013-08-01 21:49:00,66.1,63.4,29.88,WNW,286,2.0,4.0,91,0.00,,,0.13,0.0,WUHU216DAVISVP2,2013-08-02 01:49:00,
2013-08-01 21:54:00,66.1,63.1,29.88,NE,55,1.0,4.0,90,0.00,,,0.13,0.0,WUHU216DAVISVP2,2013-08-02 01:54:00,
2013-08-01 22:00:00,66.0,63.0,29.88,North,9,0.0,4.0,90,0.00,,,0.13,0.0,WUHU216DAVISVP2,2013-08-02 02:00:00,
2013-08-01 22:05:00,65.9,63.2,29.88,ENE,75,1.0,4.0,91,0.01,,,0.14,0.0,WUHU216DAVISVP2,2013-08-02 02:05:00,
2013-08-01 22:10:00,65.8,63.1,29.88,NNW,342,2.0,4.0,91,0.02,,,0.15,0.0,WUHU216DAVISVP2,2013-08-02 02:10:00,
2013-08-01 22:15:00,65.6,62.9,29.88,NNE,27,1.0,4.0,91,0.04,,,0.17,0.0,WUHU216DAVISVP2,2013-08-02 02:15:00,
2013-08-01 22:21:00,65.4,63.0,29.88,NNE,17,0.0,3.0,92,0.05,,,0.18,0.0,WUHU216DAVISVP2,2013-08-02 02:21:00,
2013-08-01 22:26:00,65.2,62.8,29.88,ENE,60,2.0,3.0,92,0.07,,,0.20,0.0,WUHU216DAVISVP2,2013-08-02 02:26:00,
2013-08-01 22:31:00,65.1,63.0,29.88,ENE,72,1.0,3.0,93,0.08,,,0.21,0.0,WUHU216DAVISVP2,2013-08-02 02:31:00,
2013-08-01 22:36:00,65.0,62.6,29.88,ENE,69,1.0,3.0,92,0.10,,,0.23,0.0,WUHU216DAVISVP2,2013-08-02 02:36:00,
2013-08-01 22:41:00,64.8,62.7,29.88,ENE,69,1.0,3.0,93,0.13,,,0.26,0.0,WUHU216DAVISVP2,2013-08-02 02:41:00,
2013-08-01 22:46:00,64.6,62.5,29.88,NE,35,0.0,3.0,93,0.15,,,0.28,0.0,WUHU216DAVISVP2,2013-08-02 02:46:00,
2013-08-01 22:51:00,64.5,62.4,29.88,NE,48,0.0,3.0,93,0.16,,,0.29,0.0,WUHU216DAVISVP2,2013-08-02 02:51:00,
2013-08-01 22:56:00,64.5,62.4,29.88,NE,48,0.0,3.0,93,0.16,,,0.29,0.0,WUHU216DAVISVP2,2013-08-02 02:56:00,
2013-08-01 23:02:00,64.4,62.3,29.87,NE,44,2.0,3.0,93,0.18,,,0.31,0.0,WUHU216DAVISVP2,2013-08-02 03:02:00,
2013-08-01 23:07:00,64.4,62.3,29.87,NE,44,1.0,3.0,93,0.18,,,0.32,0.0,WUHU216DAVISVP2,2013-08-02 03:07:00,
2013-08-01 23:12:00,64.3,62.2,29.87,ENE,62,1.0,3.0,93,0.16,,,0.32,0.0,WUHU216DAVISVP2,2013-08-02 03:12:00,
2013-08-01 23:17:00,64.3,62.2,29.87,ENE,62,2.0,3.0,93,0.16,,,0.33,0.0,WUHU216DAVISVP2,2013-08-02 03:17:00,
2013-08-01 23:22:00,64.3,62.2,29.87,ENE,62,1.0,3.0,93,0.16,,,0.35,0.0,WUHU216DAVISVP2,2013-08-02 03:22:00,
2013-08-01 23:28:00,64.2,62.1,29.87,ENE,62,1.0,3.0,93,0.18,,,0.39,0.0,WUHU216DAVISVP2,2013-08-02 03:28:00,
2013-08-01 23:33:00,64.2,62.4,29.87,ENE,62,1.0,3.0,94,0.20,,,0.42,0.0,WUHU216DAVISVP2,2013-08-02 03:33:00,
2013-08-01 23:38:00,64.1,62.3,29.86,ENE,62,1.0,2.0,94,0.19,,,0.43,0.0,WUHU216DAVISVP2,2013-08-02 03:38:00,
2013-08-01 23:43:00,64.1,62.3,29.86,ENE,68,1.0,4.0,94,0.18,,,0.44,0.0,WUHU216DAVISVP2,2013-08-02 03:43:00,
2013-08-01 23:48:00,64.1,62.3,29.86,ENE,68,0.0,4.0,94,0.15,,,0.44,0.0,WUHU216DAVISVP2,2013-08-02 03:48:00,
2013-08-01 23:53:00,64.2,62.4,29.86,SSW,198,0.0,4.0,94,0.16,,,0.45,0.0,WUHU216DAVISVP2,2013-08-02 03:53:00,
2013-08-01 23:58:00,64.2,62.1,29.86,ENE,59,1.0,4.0,93,0.15,,,0.45,0.0,WUHU216DAVISVP2,2013-08-02 03:58:00,